logo
Rechercher aéroport 
image banner adimage banner adimage banner ad
image banner ad

KPBG - Plattsburgh Intl

Situé à Plattsburgh, United States

ICAO - PBG, IATA - PBG

Données fournies par Airmate  

Information générale

Coordonnées: N44°39'3" W73°28'5"
Élévation : 234 feet MSL.
Variation magnétique : -15° East
Voir autres Aéroports à New York

Données opérationnelles

Special qualification required
Heure actuelle UTC:
Heure actuelle locale:
Météo
METAR: KPBG 171753Z AUTO 14016G23KT 10SM CLR 24/16 A3001 RMK AO2 SLP163 T02390156 10244 20172 58010
TAF: KPBG 171720Z 1718/1818 14010KT P6SM SCT070 FM172300 15004KT P6SM FEW060 FM181400 14008KT P6SM SCT200
Voir NOTAMs / SUP AIP / TFR affectant cet aéroport [VIEW]
Fréquences de communication: [VIEW]

Pistes:

Identifiant RWYQFULongueur (ft)Largeur (ft)SurfaceLDA (ft)
17157°11759200ASPH11759
35337°11759200ASPH11759

Coordonnées de l'aéroport

Adresse: Plattsburgh United States

Vue satellite de KPBG